createdAt,value
2019-04-16T00:04:27.497Z,4.70
2019-04-16T00:09:24.501Z,4.70
2019-04-16T00:14:21.346Z,4.60
2019-04-16T00:19:12.262Z,5.30
2019-04-16T00:24:05.837Z,4.40
2019-04-16T00:29:01.671Z,4.40
2019-04-16T00:33:48.455Z,5.17
2019-04-16T00:38:40.825Z,4.13
2019-04-16T00:43:30.283Z,4.60
2019-04-16T00:48:21.217Z,4.03
2019-04-16T00:53:12.119Z,4.80
2019-04-16T00:58:03.015Z,4.62
2019-04-16T01:02:53.931Z,4.80
2019-04-16T01:07:44.835Z,5.07
2019-04-16T01:12:35.732Z,5.13
2019-04-16T01:17:27.375Z,4.70
2019-04-16T01:22:19.023Z,4.37
2019-04-16T01:27:09.933Z,4.77
2019-04-16T01:37:25.944Z,4.40
2019-04-16T01:42:16.183Z,5.30
2019-04-16T01:47:07.852Z,4.83
2019-04-16T01:51:58.754Z,4.27
2019-04-16T01:56:49.668Z,4.50
2019-04-16T02:01:43.373Z,5.13
2019-04-16T02:06:31.500Z,4.30
2019-04-16T02:11:22.408Z,5.00
2019-04-16T02:16:14.043Z,4.95
2019-04-16T02:21:09.543Z,5.27
2019-04-16T02:25:56.611Z,5.50
2019-04-16T02:30:47.520Z,4.93
2019-04-16T02:35:38.416Z,4.80
2019-04-16T02:40:29.307Z,4.63
2019-04-16T02:45:23.716Z,4.30
2019-04-16T02:50:11.362Z,4.23
2019-04-16T02:55:10.535Z,4.97
2019-04-16T02:59:58.860Z,6.20
2019-04-16T03:04:51.555Z,5.10
2019-04-16T03:09:42.455Z,5.00
2019-04-16T03:14:33.338Z,4.70
2019-04-16T03:19:24.243Z,4.93
2019-04-16T03:24:15.146Z,5.67
2019-04-16T03:29:06.046Z,4.97
2019-04-16T03:33:56.947Z,5.20
2019-04-16T03:38:47.864Z,5.97
2019-04-16T03:43:38.814Z,5.27
2019-04-16T03:48:29.718Z,6.30
2019-04-16T03:53:20.654Z,6.27
2019-04-16T03:58:11.559Z,5.20
2019-04-16T04:03:02.502Z,5.57
2019-04-16T04:07:55.210Z,5.53
2019-04-16T04:12:45.666Z,5.97
2019-04-16T04:17:35.708Z,6.00
2019-04-16T04:22:26.652Z,5.80
2019-04-16T04:27:19.297Z,5.33
2019-04-16T04:32:08.083Z,5.60
2019-04-16T04:36:59.703Z,5.57
2019-04-16T04:41:52.692Z,6.75
2019-04-16T04:46:43.191Z,5.90
2019-04-16T04:51:32.573Z,5.83
2019-04-16T04:56:27.771Z,5.43
2019-04-16T05:01:14.410Z,6.77
2019-04-16T05:06:06.250Z,5.80
2019-04-16T05:10:59.905Z,5.70
2019-04-16T05:15:48.076Z,5.90
2019-04-16T05:20:39.722Z,5.50
2019-04-16T05:25:34.187Z,6.00
2019-04-16T05:30:22.142Z,5.40
2019-04-16T05:35:12.594Z,5.87
2019-04-16T05:40:03.534Z,6.03
2019-04-16T05:44:54.427Z,5.50
2019-04-16T05:49:45.350Z,6.60
2019-04-16T05:54:36.254Z,6.70
2019-04-16T05:59:27.143Z,6.03
2019-04-16T06:04:18.048Z,6.80
2019-04-16T06:09:11.909Z,7.00
2019-04-16T06:13:59.878Z,8.23
2019-04-16T06:18:52.666Z,7.30
2019-04-16T06:23:44.307Z,8.27
2019-04-16T06:28:45.199Z,9.10
2019-04-16T06:33:37.994Z,8.17
2019-04-16T06:38:28.954Z,8.43
2019-04-16T06:43:25.332Z,8.60
2019-04-16T06:48:13.203Z,8.40
2019-04-16T06:53:02.494Z,7.43
2019-04-16T06:57:59.604Z,7.67
2019-04-16T07:03:02.225Z,9.45
2019-04-16T07:12:54.861Z,8.20
2019-04-16T07:17:45.856Z,8.73
2019-04-16T07:22:37.063Z,7.93
2019-04-16T07:27:28.048Z,7.90
2019-04-16T07:32:20.739Z,7.43
2019-04-16T07:37:11.572Z,7.13
2019-04-16T07:42:11.965Z,6.73
2019-04-16T07:47:05.462Z,10.27
2019-04-16T07:52:06.976Z,9.50
2019-04-16T07:56:54.157Z,8.73
2019-04-16T08:01:47.743Z,8.10
2019-04-16T08:06:37.067Z,9.10
2019-04-16T08:11:27.974Z,8.10
2019-04-16T08:16:19.110Z,6.80
2019-04-16T08:21:12.491Z,6.33
2019-04-16T08:26:04.312Z,8.70
2019-04-16T08:30:52.989Z,8.00
2019-04-16T08:35:43.918Z,8.97
2019-04-16T08:40:34.924Z,7.97
2019-04-16T08:45:25.870Z,6.53
2019-04-16T08:50:16.887Z,6.43
2019-04-16T08:55:08.106Z,5.93
2019-04-16T08:59:59.244Z,6.20
2019-04-16T09:04:50.863Z,8.70
2019-04-16T09:09:43.298Z,8.73
2019-04-16T09:14:34.220Z,7.33
2019-04-16T09:19:25.158Z,5.77
2019-04-16T09:24:19.085Z,7.87
2019-04-16T09:29:11.925Z,7.43
2019-04-16T09:34:06.455Z,7.10
2019-04-16T09:38:54.744Z,8.05
2019-04-16T09:43:45.670Z,7.90
2019-04-16T09:48:36.569Z,6.93
2019-04-16T09:53:34.087Z,6.70
2019-04-16T09:58:21.534Z,6.00
2019-04-16T10:03:10.467Z,6.00
2019-04-16T10:08:01.371Z,6.70
2019-04-16T10:12:52.315Z,7.20
2019-04-16T10:17:43.214Z,7.70
2019-04-16T10:22:34.118Z,6.73
2019-04-16T10:27:31.294Z,6.90
2019-04-16T10:32:18.685Z,6.10
2019-04-16T10:37:08.919Z,7.17
2019-04-16T10:42:00.829Z,5.90
2019-04-16T10:46:53.261Z,7.20
2019-04-16T10:51:50.458Z,7.00
2019-04-16T10:56:45.319Z,6.73
2019-04-16T11:01:38.276Z,5.50
2019-04-16T11:06:32.117Z,5.50
2019-04-16T11:11:23.099Z,5.77
2019-04-16T11:16:14.059Z,6.62
2019-04-16T11:21:04.987Z,6.57
2019-04-16T11:25:56.619Z,6.37
2019-04-16T11:30:48.926Z,5.30
2019-04-16T11:35:39.182Z,4.97
2019-04-16T11:40:30.845Z,4.37
2019-04-16T11:45:21.746Z,6.00
2019-04-16T11:50:13.414Z,5.07
2019-04-16T11:55:04.210Z,4.90
2019-04-16T12:00:06.565Z,4.17
2019-04-16T12:04:47.103Z,3.87
2019-04-16T12:09:40.900Z,3.90
2019-04-16T12:14:34.849Z,5.60
2019-04-16T12:24:52.984Z,5.50
2019-04-16T12:29:43.895Z,4.00
2019-04-16T12:34:36.831Z,4.23
2019-04-16T12:39:29.782Z,5.10
2019-04-16T12:44:23.933Z,5.00
2019-04-16T12:49:15.534Z,4.87
2019-04-16T12:59:44.158Z,5.03
2019-04-16T13:09:58.511Z,5.25
2019-04-16T13:15:00.498Z,5.20
2019-04-16T13:19:46.298Z,5.20
2019-04-16T13:24:37.946Z,5.23
2019-04-16T13:29:30.565Z,4.57
2019-04-16T13:34:20.511Z,4.53
2019-04-16T13:39:12.291Z,4.40
2019-04-16T13:44:07.977Z,4.37
2019-04-16T13:49:00.735Z,4.07
2019-04-16T13:53:50.722Z,4.40
2019-04-16T13:58:42.365Z,5.10
2019-04-16T14:03:34.007Z,4.97
2019-04-16T14:08:24.912Z,4.75
2019-04-16T14:13:16.562Z,5.37
2019-04-16T14:18:07.450Z,5.60
2019-04-16T14:22:58.418Z,4.90
2019-04-16T14:27:49.279Z,4.60
2019-04-16T14:32:40.188Z,5.00
2019-04-16T14:37:31.083Z,5.20
2019-04-16T14:42:23.026Z,5.60
2019-04-16T14:47:12.930Z,5.10
2019-04-16T14:52:03.865Z,5.22
2019-04-16T14:56:56.753Z,5.80
2019-04-16T15:01:53.723Z,5.60
2019-04-16T15:06:45.352Z,4.73
2019-04-16T15:16:56.843Z,4.93
2019-04-16T15:21:48.742Z,5.00
2019-04-16T15:26:44.227Z,5.43
2019-04-16T15:31:40.107Z,4.40
2019-04-16T15:36:31.738Z,4.20
2019-04-16T15:46:53.563Z,4.90
2019-04-16T15:52:02.697Z,5.30
2019-04-16T15:56:58.559Z,4.97
2019-04-16T16:01:55.636Z,4.60
2019-04-16T16:06:51.785Z,4.40
2019-04-16T16:11:39.495Z,4.53
2019-04-16T16:16:41.442Z,5.20
2019-04-16T16:21:21.338Z,5.70
2019-04-16T16:26:12.254Z,4.53
2019-04-16T16:31:03.378Z,5.20
2019-04-16T16:35:58.847Z,5.00
2019-04-16T16:40:49.474Z,4.70
2019-04-16T16:45:37.886Z,5.57
2019-04-16T16:50:28.796Z,5.45
2019-04-16T16:55:19.709Z,7.10
2019-04-16T17:00:16.818Z,7.10
2019-04-16T17:05:11.546Z,6.20
2019-04-16T17:10:02.449Z,6.45
2019-04-16T17:14:54.091Z,6.47
2019-04-16T17:19:45.061Z,6.30
2019-04-16T17:24:36.790Z,6.03
2019-04-16T17:29:27.682Z,6.67
2019-04-16T17:34:18.630Z,5.93
2019-04-16T17:39:10.747Z,6.30
2019-04-16T17:44:04.452Z,5.40
2019-04-16T17:49:05.382Z,6.40
2019-04-16T17:53:58.211Z,5.80
2019-04-16T17:58:54.966Z,6.17
2019-04-16T18:03:50.718Z,5.57
2019-04-16T18:08:58.352Z,5.90
2019-04-16T18:14:04.372Z,6.10
2019-04-16T18:18:50.173Z,6.18
2019-04-16T18:23:42.599Z,5.10
2019-04-16T18:28:34.554Z,5.87
2019-04-16T18:38:50.274Z,6.22
2019-04-16T18:43:47.239Z,6.17
2019-04-16T18:48:39.067Z,6.90
2019-04-16T18:53:29.980Z,7.00
2019-04-16T18:58:20.880Z,8.03
2019-04-16T19:03:14.860Z,7.37
2019-04-16T19:08:02.739Z,6.83
2019-04-16T19:12:53.677Z,7.33
2019-04-16T19:17:44.560Z,7.45
2019-04-16T19:22:35.634Z,6.93
2019-04-16T19:27:27.896Z,7.50
2019-04-16T19:32:17.461Z,7.30
2019-04-16T19:37:08.379Z,6.57
2019-04-16T19:41:59.274Z,6.60
2019-04-16T19:46:52.604Z,7.17
2019-04-16T19:51:41.983Z,6.53
2019-04-16T19:56:33.591Z,6.53
2019-04-16T20:01:22.950Z,7.03
2019-04-16T20:06:13.848Z,6.63
2019-04-16T20:11:04.743Z,7.70
2019-04-16T20:15:59.408Z,6.78
2019-04-16T20:20:50.148Z,6.50
2019-04-16T20:25:38.246Z,6.80
2019-04-16T20:30:29.159Z,6.53
2019-04-16T20:35:20.075Z,6.40
2019-04-16T20:40:10.986Z,6.47
2019-04-16T20:45:01.882Z,6.18
2019-04-16T20:49:53.531Z,7.00
2019-04-16T20:54:45.187Z,6.57
2019-04-16T20:59:39.221Z,6.23
2019-04-16T21:04:27.098Z,6.13
2019-04-16T21:09:18.738Z,6.90
2019-04-16T21:14:10.383Z,6.50
2019-04-16T21:19:01.607Z,5.75
2019-04-16T21:23:52.217Z,6.33
2019-04-16T21:28:43.860Z,6.30
2019-04-16T21:33:36.629Z,6.37
2019-04-16T21:38:27.533Z,5.80
2019-04-16T21:43:18.435Z,6.30
2019-04-16T21:48:12.243Z,6.00
2019-04-16T21:53:00.385Z,6.63
2019-04-16T21:57:52.051Z,5.73
2019-04-16T22:02:43.072Z,6.70
2019-04-16T22:07:33.974Z,6.13
2019-04-16T22:12:24.898Z,7.03
2019-04-16T22:17:15.795Z,6.70
2019-04-16T22:22:07.430Z,6.03
2019-04-16T22:26:59.074Z,6.80
2019-04-16T22:31:56.145Z,7.07
2019-04-16T22:36:41.038Z,7.30
2019-04-16T22:41:38.215Z,6.40
2019-04-16T22:46:29.167Z,6.80
2019-04-16T22:51:20.066Z,6.77
2019-04-16T22:56:10.975Z,5.97
2019-04-16T23:01:01.866Z,6.60
2019-04-16T23:05:52.770Z,7.22
2019-04-16T23:10:43.781Z,7.12
2019-04-16T23:15:34.679Z,7.40
2019-04-16T23:20:29.618Z,6.97
2019-04-16T23:25:16.514Z,6.57
2019-04-16T23:30:07.438Z,7.17
2019-04-16T23:34:58.346Z,6.13
2019-04-16T23:39:49.247Z,7.20
2019-04-16T23:44:58.873Z,6.87
2019-04-16T23:49:48.544Z,7.10
